createdAt,value
2022-11-13T00:04:27.928Z,6.8
2022-11-13T00:09:35.947Z,6.8
2022-11-13T00:14:43.928Z,6.5
2022-11-13T00:19:52.032Z,6.3
2022-11-13T00:25:00.019Z,6.3
2022-11-13T00:30:08.098Z,6.2
2022-11-13T00:35:16.106Z,5.9
2022-11-13T00:40:24.144Z,5.7
2022-11-13T00:45:32.134Z,5.6
2022-11-13T00:50:40.168Z,5.7
2022-11-13T00:55:48.842Z,5.7
2022-11-13T01:00:57.483Z,5.5
2022-11-13T01:06:06.126Z,5.8
2022-11-13T01:11:14.771Z,5.9
2022-11-13T01:16:23.411Z,5.9
2022-11-13T01:21:32.070Z,5.8
2022-11-13T01:26:40.702Z,6
2022-11-13T01:31:49.397Z,6
2022-11-13T01:36:58.013Z,5.9
2022-11-13T01:42:06.654Z,5.9
2022-11-13T01:47:15.305Z,5.8
2022-11-13T01:52:23.972Z,5.6
2022-11-13T01:57:32.582Z,5.6
2022-11-13T02:02:42.257Z,5.3
2022-11-13T02:07:50.056Z,5.3
2022-11-13T02:12:57.734Z,5.7
2022-11-13T02:18:05.451Z,5.6
2022-11-13T02:23:13.145Z,5.6
2022-11-13T02:28:20.844Z,5.8
2022-11-13T02:33:28.529Z,5.9
2022-11-13T02:43:43.894Z,5.7
2022-11-13T02:48:51.625Z,5.8
2022-11-13T02:53:59.364Z,5.9
2022-11-13T02:59:06.967Z,5.8
2022-11-13T03:04:14.695Z,5.8
2022-11-13T03:09:22.378Z,6
2022-11-13T03:14:30.201Z,6
2022-11-13T03:19:37.684Z,6
2022-11-13T03:24:45.359Z,5.9
2022-11-13T03:29:53.085Z,5.7
2022-11-13T03:35:00.663Z,5.6
2022-11-13T03:40:08.346Z,5.3
2022-11-13T03:45:16.017Z,5
2022-11-13T03:50:23.719Z,5
2022-11-13T03:55:31.400Z,4.9
2022-11-13T04:00:39.101Z,4.7
2022-11-13T04:05:46.829Z,4.5
2022-11-13T04:10:54.543Z,4.3
2022-11-13T04:16:02.374Z,4.9
2022-11-13T04:21:10.249Z,5.4
2022-11-13T04:26:18.128Z,5.2
2022-11-13T04:31:25.997Z,4.9
2022-11-13T04:36:33.857Z,4.6
2022-11-13T04:41:41.710Z,5.1
2022-11-13T04:46:49.575Z,5.9
2022-11-13T04:51:57.412Z,6.3
2022-11-13T04:57:05.239Z,6.6
2022-11-13T05:02:13.072Z,6.6
2022-11-13T05:07:20.831Z,6.7
2022-11-13T05:12:28.591Z,6.7
2022-11-13T05:17:36.350Z,6.7
2022-11-13T05:22:44.350Z,6.7
2022-11-13T05:27:52.353Z,6.8
2022-11-13T05:33:00.277Z,6.8
2022-11-13T05:38:08.242Z,6.7
2022-11-13T05:43:16.198Z,6.7
2022-11-13T05:48:24.119Z,6.7
2022-11-13T05:53:32.039Z,6.6
2022-11-13T05:58:40.000Z,6.6
2022-11-13T06:03:47.918Z,6.5
2022-11-13T06:08:55.869Z,6.6
2022-11-13T06:14:03.799Z,6.6
2022-11-13T06:19:11.742Z,6.6
2022-11-13T06:24:19.649Z,6.6
2022-11-13T06:29:28.211Z,6.6
2022-11-13T06:34:36.722Z,6.6
2022-11-13T06:39:45.197Z,6.7
2022-11-13T06:44:53.796Z,6.7
2022-11-13T06:50:02.212Z,6.8
2022-11-13T06:55:10.710Z,6.8
2022-11-13T07:00:19.237Z,6.9
2022-11-13T07:05:27.698Z,7
2022-11-13T07:10:36.161Z,7
2022-11-13T07:15:44.630Z,7
2022-11-13T07:20:53.092Z,7.1
2022-11-13T07:26:01.555Z,7.1
2022-11-13T07:31:10.044Z,7.1
2022-11-13T07:36:19.578Z,7.1
2022-11-13T07:41:27.283Z,7.2
2022-11-13T07:46:34.680Z,7.2
2022-11-13T07:51:42.215Z,7.4
2022-11-13T07:56:49.651Z,7.5
2022-11-13T08:01:57.155Z,7.7
2022-11-13T08:07:04.562Z,7.8
2022-11-13T08:12:12.015Z,7.9
2022-11-13T08:17:19.453Z,8
2022-11-13T08:22:26.890Z,8.1
2022-11-13T08:27:34.308Z,8.3
2022-11-13T08:32:41.887Z,8.3
2022-11-13T08:37:49.223Z,8.5
2022-11-13T08:42:56.559Z,8.5
2022-11-13T08:48:04.006Z,8.5
2022-11-13T08:53:11.375Z,8.6
2022-11-13T08:58:18.767Z,8.6
2022-11-13T09:03:26.157Z,8.6
2022-11-13T09:08:33.552Z,8.6
2022-11-13T09:13:40.961Z,8.6
2022-11-13T09:18:48.361Z,8.6
2022-11-13T09:23:55.729Z,8.5
2022-11-13T09:29:03.143Z,8.6
2022-11-13T09:34:10.519Z,8.5
2022-11-13T09:39:17.893Z,8.5
2022-11-13T09:44:25.323Z,8.5
2022-11-13T09:49:32.831Z,8.6
2022-11-13T09:54:40.334Z,8.4
2022-11-13T09:59:47.876Z,8.4
2022-11-13T10:04:55.438Z,8.5
2022-11-13T10:10:02.935Z,8.6
2022-11-13T10:15:10.524Z,8.4
2022-11-13T10:20:18.047Z,8.6
2022-11-13T10:25:25.552Z,8.8
2022-11-13T10:30:33.076Z,8.7
2022-11-13T10:35:40.625Z,8.5
2022-11-13T10:40:48.119Z,8.6
2022-11-13T10:45:55.693Z,8.7
2022-11-13T10:51:03.089Z,8.8
2022-11-13T10:56:10.870Z,8.8
2022-11-13T11:01:18.604Z,8.9
2022-11-13T11:06:26.361Z,9
2022-11-13T11:11:34.118Z,9
2022-11-13T11:16:41.820Z,9.2
2022-11-13T11:21:49.517Z,9.3
2022-11-13T11:26:57.222Z,9.3
2022-11-13T11:32:04.966Z,9.3
2022-11-13T11:37:12.689Z,9.3
2022-11-13T11:42:20.400Z,9.3
2022-11-13T11:47:28.111Z,9.3
2022-11-13T11:52:35.850Z,9.1
2022-11-13T11:57:43.513Z,9.1
2022-11-13T12:02:51.905Z,9
2022-11-13T12:08:00.141Z,9.2
2022-11-13T12:13:08.429Z,9.3
2022-11-13T12:18:16.816Z,9.4
2022-11-13T12:23:25.123Z,9.5
2022-11-13T12:28:33.453Z,9.5
2022-11-13T12:33:41.731Z,9.9
2022-11-13T12:38:49.885Z,10.1
2022-11-13T12:43:58.060Z,9.9
2022-11-13T12:49:06.250Z,9.7
2022-11-13T12:54:14.437Z,9.6
2022-11-13T12:59:22.585Z,9.8
2022-11-13T13:04:30.724Z,10.2
2022-11-13T13:09:39.957Z,11.3
2022-11-13T13:14:49.075Z,13.2
2022-11-13T13:19:56.234Z,13.6
2022-11-13T13:25:03.357Z,14.2
2022-11-13T13:30:10.432Z,13.5
2022-11-13T13:35:17.535Z,11.7
2022-11-13T13:40:24.487Z,10.9
2022-11-13T13:45:31.532Z,11.9
2022-11-13T13:50:38.629Z,12.2
2022-11-13T13:55:45.693Z,13.5
2022-11-13T14:00:52.755Z,13.2
2022-11-13T14:05:59.817Z,12.6
2022-11-13T14:11:06.867Z,12
2022-11-13T14:16:13.849Z,10.6
2022-11-13T14:21:20.940Z,9.8
2022-11-13T14:26:27.961Z,9.7
2022-11-13T14:31:35.086Z,9.4
2022-11-13T14:36:42.281Z,8.8
2022-11-13T14:41:49.211Z,8.6
2022-11-13T14:46:56.336Z,8.4
2022-11-13T14:52:03.482Z,8
2022-11-13T14:57:10.893Z,7.6
2022-11-13T15:02:18.089Z,7.3
2022-11-13T15:07:25.327Z,7.3
2022-11-13T15:12:32.542Z,6.9
2022-11-13T15:17:39.795Z,6.7
2022-11-13T15:22:46.999Z,6.2
2022-11-13T15:27:54.580Z,5.8
2022-11-13T15:33:01.958Z,5.7
2022-11-13T15:38:09.477Z,5.6
2022-11-13T15:43:16.755Z,5.3
2022-11-13T15:48:24.460Z,5.1
2022-11-13T15:53:31.815Z,5.2
2022-11-13T15:58:39.413Z,5.3
2022-11-13T16:03:46.937Z,5.5
2022-11-13T16:08:54.334Z,5.6
2022-11-13T16:14:02.139Z,6.2
2022-11-13T16:19:09.631Z,6.2
2022-11-13T16:24:17.213Z,6.6
2022-11-13T16:29:24.731Z,6.7
2022-11-13T16:34:32.367Z,6.8
2022-11-13T16:39:39.980Z,6.9
2022-11-13T16:44:47.632Z,7.1
2022-11-13T16:49:55.276Z,7.1
2022-11-13T16:55:02.899Z,7.1
2022-11-13T17:00:10.569Z,7
2022-11-13T17:05:18.209Z,6.9
2022-11-13T17:10:25.836Z,6.9
2022-11-13T17:15:33.411Z,6.6
2022-11-13T17:20:41.090Z,6.7
2022-11-13T17:25:48.710Z,6.5
2022-11-13T17:30:56.424Z,6.5
2022-11-13T17:36:04.047Z,6.6
2022-11-13T17:41:12.032Z,6.5
2022-11-13T17:46:19.859Z,6.3
2022-11-13T17:51:27.691Z,6.4
2022-11-13T17:56:35.590Z,6.2
2022-11-13T18:01:43.398Z,6.3
2022-11-13T18:06:51.371Z,6.3
2022-11-13T18:11:59.212Z,6.2
2022-11-13T18:17:06.923Z,6.1
2022-11-13T18:22:14.930Z,6
2022-11-13T18:27:22.705Z,5.7
2022-11-13T18:32:30.689Z,5.8
2022-11-13T18:37:38.618Z,5.7
2022-11-13T18:42:46.485Z,5.7
2022-11-13T18:47:55.043Z,5.6
2022-11-13T18:53:03.460Z,5.7
2022-11-13T18:58:12.074Z,5.7
2022-11-13T19:03:20.614Z,5.8
2022-11-13T19:08:29.253Z,5.7
2022-11-13T19:13:37.717Z,5.7
2022-11-13T19:18:46.253Z,5.6
2022-11-13T19:23:54.590Z,5.6
2022-11-13T19:29:03.274Z,5.5
2022-11-13T19:34:11.802Z,5.4
2022-11-13T19:39:20.284Z,5.4
2022-11-13T19:44:28.759Z,5.5
2022-11-13T19:49:37.255Z,5.5
2022-11-13T19:54:46.670Z,5.4
2022-11-13T19:59:54.394Z,5.4
2022-11-13T20:05:01.892Z,5.4
2022-11-13T20:10:09.459Z,5.3
2022-11-13T20:15:16.990Z,5.3
2022-11-13T20:20:24.467Z,5.4
2022-11-13T20:25:32.036Z,5.4
2022-11-13T20:30:39.447Z,5.4
2022-11-13T20:35:46.972Z,5.4
2022-11-13T20:40:54.667Z,5.4
2022-11-13T20:46:02.170Z,5.4
2022-11-13T20:51:09.632Z,5.4
2022-11-13T20:56:17.169Z,5.4
2022-11-13T21:01:24.902Z,5.4
2022-11-13T21:06:32.385Z,5.3
2022-11-13T21:11:39.982Z,5.3
2022-11-13T21:16:47.491Z,5.3
2022-11-13T21:21:54.945Z,5.3
2022-11-13T21:27:02.401Z,5.3
2022-11-13T21:32:09.972Z,5.2
2022-11-13T21:37:17.453Z,5.2
2022-11-13T21:42:25.072Z,5.2
2022-11-13T21:47:32.608Z,5.2
2022-11-13T21:52:40.132Z,5.2
2022-11-13T21:57:47.699Z,5.1
2022-11-13T22:02:55.202Z,5.1
2022-11-13T22:08:02.943Z,5
2022-11-13T22:13:10.648Z,5
2022-11-13T22:18:18.490Z,5.1
2022-11-13T22:23:26.162Z,5.1
2022-11-13T22:28:33.763Z,5.2
2022-11-13T22:33:41.500Z,5
2022-11-13T22:38:49.231Z,4.9
2022-11-13T22:43:57.020Z,4.8
2022-11-13T22:49:04.727Z,4.7
2022-11-13T22:54:12.543Z,4.8
2022-11-13T22:59:20.156Z,4.8
2022-11-13T23:04:27.889Z,4.8
2022-11-13T23:09:35.754Z,4.7
2022-11-13T23:14:43.602Z,4.7
2022-11-13T23:19:51.518Z,4.8
2022-11-13T23:24:59.495Z,4.8
2022-11-13T23:30:07.466Z,4.9
2022-11-13T23:35:15.393Z,4.8
2022-11-13T23:40:23.296Z,4.9
2022-11-13T23:45:31.279Z,4.9
2022-11-13T23:50:39.221Z,4.8
2022-11-13T23:55:47.154Z,4.7
